Flight Track Log - Related Links

Times and Time Zones

All times are in EDT time to prevent confusion due to time zone crossing. See the ASH3770 flight status page for this flight to view local times or setup timezone preferences in your user account.

Time Position Orientation Groundspeed Altitude Reporting Facility
EDT Latitude Longitude Course Direction KTS MPH feet Rate Location/Type
Mon 03:49:05 PM 38.9833 -77.5333 124° Southeast 214 246 3,000  Level Potomac TRACON
Mon 03:50:05 PM 39.0167 -77.6000 303° West 255 293 4,800 1,895 Climbing Potomac TRACON
Mon 03:50:59 PM 39.0667 -77.6667 314° West 266 306 6,600 2,479 Climbing Potomac TRACON
Mon 03:52:06 PM 39.1333 -77.6500 11° North 306 352 9,800 1,686 Climbing Potomac TRACON
Mon 03:53:00 PM 39.1333 -77.5500 90° East 338 389 10,000 105 Climbing Potomac TRACON
Mon 03:54:00 PM 38.4851 -77.1695 124° Southeast  Level Estimated
Mon 03:54:00 PM 39.1333 -77.4167 90° East 352 405 10,000  Level Potomac TRACON
Mon 03:55:01 PM 39.1333 -77.3000 90° East 349 402 10,000 149 Level Potomac TRACON
Mon 03:56:01 PM 39.1167 -77.1833 100° East 344 396 10,300 1,262 Climbing Potomac TRACON
Mon 03:58:16 PM 38.9953 -76.9644 125° Southeast 343 395 14,100 1,163 Climbing Washington Center
Mon 03:59:17 PM 38.9019 -76.9147 157° South 350 403 14,100 -98 Level Washington Center
Mon 04:00:18 PM 38.8086 -76.8650 157° South 361 415 13,900 -50 Descending Washington Center
Mon 04:01:16 PM 38.7153 -76.8128 156° South 366 421 14,000 50 Climbing Washington Center
Mon 04:02:17 PM 38.6200 -76.7608 157° South 371 427 14,000  Level Washington Center
Mon 04:03:18 PM 38.5244 -76.7247 164° South 371 427 14,000  Level Washington Center
Mon 04:04:19 PM 38.4350 -76.7075 171° South 365 420 14,000  Level Washington Center
Mon 04:05:16 PM 38.3350 -76.6981 176° South 365 420 14,000 -51 Level Washington Center
Mon 04:06:17 PM 38.2369 -76.6833 173° South 360 414 13,900 -49 Descending Washington Center
Mon 04:07:18 PM 38.1392 -76.6689 173° South 360 414 13,900  Level Washington Center
Mon 04:08:16 PM 38.0392 -76.6675 179° South 360 414 13,900  Level Washington Center
Mon 04:09:16 PM 37.9411 -76.6739 183° South 360 414 13,900 -387 Level Washington Center
Mon 04:09:49 PM 37.8847 -76.6864 190° South 347 399 13,300 -1,026 Descending Washington Center
Mon 04:10:32 PM 37.8264 -76.6539 156° South 355 409 12,600 -955 Descending Washington Center
Mon 04:11:17 PM 37.7769 -76.5850 132° Southeast 326 375 11,900 -792 Descending Washington Center
Mon 04:12:18 PM 37.7089 -76.4894 132° Southeast 341 392 11,200 -694 Descending Washington Center
Mon 04:13:18 PM 37.6428 -76.3969 132° Southeast 346 398 10,500 -661 Descending Washington Center
Mon 04:14:16 PM 37.5744 -76.3203 138° Southeast 346 398 9,900 -1,017 Descending Washington Center
Mon 04:15:16 PM 37.5039 -76.2750 153° Southeast 315 362 8,500 -1,388 Descending Washington Center
Mon 04:16:17 PM 37.4353 -76.2353 155° Southeast 288 331 7,100 -1,180 Descending Washington Center
Mon 04:17:18 PM 37.3686 -76.1956 155° Southeast 276 318 6,100 -923 Descending Washington Center
Mon 04:17:48 PM 37.3269 -76.1717 155° Southeast 260 299 5,700 -600 Descending Washington Center
Mon 04:18:18 PM 37.3042 -76.1558 151° Southeast 271 312 5,500 -545 Descending Washington Center
Mon 04:19:16 PM 37.2356 -76.1161 155° Southeast 259 298 4,900 -561 Descending Washington Center
Mon 04:20:37 PM 37.1503 -76.0844 164° South 228 262 4,200 -444 Descending Washington Center
Mon 04:21:31 PM 37.0981 -76.0658 164° South 220 253 3,900 -333 Descending Washington Center

Login

Don't have an account? Register now (free) for customized features, flight alerts, and more!